Time;durP1;ratioP1;P1;durP2;ratioP2;P2;SDS_P1;SDS_P2;PMS_P1;PMS_P2;Temp;Humidity;BMP_temperature;BMP_pressure;BME280_temperature;BME280_humidity;BME280_pressure;Samples;Min_cycle;Max_cycle;Signal;HPM_P1;HPM_P2
2024/02/21 00:01:21;;;;;;;;;;;;;;;16.48;42.89;101546.88;4952686;29;1096;-49
2024/02/21 00:03:46;;;;;;;;;;;;;;;16.07;43.34;101540.38;4953224;28;1086;-47
2024/02/21 00:06:12;;;;;;;;;;;;;;;17.08;42.61;101542.31;4961665;29;1116;-45
2024/02/21 00:08:37;;;;;;;;;;;;;;;17.28;41.28;101544.72;4961710;29;1077;-44
2024/02/21 00:11:03;;;;;;;;;;;;;;;16.33;43.26;101538.00;4961133;29;1930;-47
2024/02/21 00:13:29;;;;;;;;;;;;;;;17.32;42.01;101540.91;4961841;29;1169;-43
2024/02/21 00:15:54;;;;;;;;;;;;;;;16.98;42.21;101534.06;4956712;29;999;-45
2024/02/21 00:18:20;;;;;;;;;;;;;;;16.23;43.15;101529.72;4953930;29;2467;-46
2024/02/21 00:20:45;;;;;;;;;;;;;;;16.57;43.24;101537.47;4961505;29;1094;-42
2024/02/21 00:23:11;;;;;;;;;;;;;;;18.01;40.02;101529.41;4957384;29;1561;-45
2024/02/21 00:25:37;;;;;;;;;;;;;;;16.58;42.71;101531.22;4955277;29;1168;-45
2024/02/21 00:28:02;;;;;;;;;;;;;;;17.93;40.51;101526.38;4953626;29;1014;-42
2024/02/21 00:30:28;;;;;;;;;;;;;;;17.28;41.30;101521.66;4961125;29;1902;-47
2024/02/21 00:32:53;;;;;;;;;;;;;;;16.38;43.58;101528.81;4961160;29;1022;-46
2024/02/21 00:35:19;;;;;;;;;;;;;;;18.61;38.93;101528.97;4957162;29;982;-43
2024/02/21 00:37:44;;;;;;;;;;;;;;;16.88;42.31;101532.97;4953609;29;1093;-43
2024/02/21 00:40:10;;;;;;;;;;;;;;;16.40;43.08;101534.88;4961221;29;1077;-46
2024/02/21 00:42:36;;;;;;;;;;;;;;;16.31;43.54;101532.78;4961352;29;1368;-44
2024/02/21 00:45:01;;;;;;;;;;;;;;;18.39;39.29;101527.78;4960797;29;1105;-44
2024/02/21 00:47:27;;;;;;;;;;;;;;;16.77;42.42;101533.59;4961055;29;2491;-46
2024/02/21 00:49:52;;;;;;;;;;;;;;;16.28;43.00;101525.84;4956311;29;1915;-46
2024/02/21 00:52:18;;;;;;;;;;;;;;;17.72;40.69;101526.84;4953005;29;1050;-48
2024/02/21 00:54:44;;;;;;;;;;;;;;;16.50;42.68;101526.34;4960395;29;1145;-47
2024/02/21 00:57:09;;;;;;;;;;;;;;;16.16;43.36;101522.09;4960626;29;1120;-45
2024/02/21 00:59:35;;;;;;;;;;;;;;;16.56;43.33;101523.34;4947723;29;1320;-44
2024/02/21 01:02:00;;;;;;;;;;;;;;;17.02;41.75;101529.44;4960612;29;1007;-48
2024/02/21 01:04:26;;;;;;;;;;;;;;;16.25;43.07;101519.84;4956201;29;1536;-44
2024/02/21 01:06:51;;;;;;;;;;;;;;;17.67;41.09;101515.63;4952471;28;1035;-45
2024/02/21 01:09:17;;;;;;;;;;;;;;;16.61;42.59;101520.41;4960661;29;1151;-42
2024/02/21 01:11:42;;;;;;;;;;;;;;;16.08;43.86;101512.91;4960650;29;1915;-45
2024/02/21 01:14:08;;;;;;;;;;;;;;;15.95;43.35;101502.13;4947547;28;1232;-46
2024/02/21 01:16:33;;;;;;;;;;;;;;;17.30;41.89;101513.59;4960154;29;1025;-48
2024/02/21 01:18:59;;;;;;;;;;;;;;;16.59;42.75;101511.66;4960397;29;2524;-44
2024/02/21 01:21:24;;;;;;;;;;;;;;;16.01;43.84;101502.66;4960317;29;1100;-42
2024/02/21 01:23:50;;;;;;;;;;;;;;;17.75;40.70;101502.69;4958808;29;1096;-46
2024/02/21 01:26:16;;;;;;;;;;;;;;;16.40;42.97;101507.47;4949808;29;1173;-42
2024/02/21 01:28:42;;;;;;;;;;;;;;;16.11;43.93;101502.09;4954230;29;1050;-41
2024/02/21 01:31:07;;;;;;;;;;;;;;;17.33;41.20;101505.41;4951542;29;1972;-44
2024/02/21 01:33:34;;;;;;;;;;;;;;;16.23;43.22;101501.38;4959856;29;1074;-46
2024/02/21 01:36:03;;;;;;;;;;;;;;;16.70;43.13;101500.41;4960163;29;1034;-43
2024/02/21 01:38:29;;;;;;;;;;;;;;;17.27;41.48;101500.47;4959997;29;1053;-44
2024/02/21 01:40:54;;;;;;;;;;;;;;;16.24;43.17;101500.44;4960425;29;1018;-44
2024/02/21 01:43:20;;;;;;;;;;;;;;;16.92;43.00;101502.56;4960169;29;1155;-44
2024/02/21 01:45:49;;;;;;;;;;;;;;;16.85;42.28;101495.94;4960030;29;1153;-46
2024/02/21 01:48:16;;;;;;;;;;;;;;;16.12;43.49;101501.16;4959355;29;2546;-46
2024/02/21 01:50:41;;;;;;;;;;;;;;;17.97;40.42;101498.59;4948783;29;1986;-48
2024/02/21 01:53:07;;;;;;;;;;;;;;;16.40;43.11;101496.84;4953286;29;1165;-48
2024/02/21 01:55:32;;;;;;;;;;;;;;;15.96;43.83;101499.38;4935511;29;1110;-47
2024/02/21 01:57:58;;;;;;;;;;;;;;;17.94;40.08;101498.81;4955552;29;1054;-49
2024/02/21 02:00:24;;;;;;;;;;;;;;;16.46;43.09;101504.47;4939136;29;1188;-44
2024/02/21 02:02:49;;;;;;;;;;;;;;;16.18;44.01;101507.91;4959679;28;1106;-44
2024/02/21 02:05:17;;;;;;;;;;;;;;;17.69;40.46;101495.97;4942774;29;1054;-45
2024/02/21 02:07:42;;;;;;;;;;;;;;;16.35;43.10;101498.94;4960249;29;1190;-47
2024/02/21 02:10:08;;;;;;;;;;;;;;;17.20;42.16;101503.50;4959908;29;1980;-47
2024/02/21 02:12:33;;;;;;;;;;;;;;;17.50;40.81;101496.31;4954044;29;1073;-44
2024/02/21 02:14:59;;;;;;;;;;;;;;;16.36;43.02;101498.84;4942905;29;1086;-44
2024/02/21 02:17:25;;;;;;;;;;;;;;;16.03;43.21;101503.41;4958229;29;2600;-44
2024/02/21 02:19:50;;;;;;;;;;;;;;;18.07;40.05;101510.34;4959544;29;1114;-43
2024/02/21 02:22:17;;;;;;;;;;;;;;;16.73;42.26;101511.66;4946499;29;1181;-45
2024/02/21 02:24:42;;;;;;;;;;;;;;;16.15;43.53;101507.13;4950561;29;1249;-48
2024/02/21 02:27:08;;;;;;;;;;;;;;;16.17;43.94;101501.72;4957382;28;1169;-45
2024/02/21 02:29:33;;;;;;;;;;;;;;;17.70;40.60;101503.00;4959034;29;1902;-46
2024/02/21 02:31:59;;;;;;;;;;;;;;;16.31;43.18;101506.25;4959211;29;983;-46
2024/02/21 02:34:24;;;;;;;;;;;;;;;17.38;41.62;101505.97;4959219;28;1185;-45
2024/02/21 02:36:50;;;;;;;;;;;;;;;16.99;41.93;101508.34;4958843;29;1081;-48
2024/02/21 02:39:15;;;;;;;;;;;;;;;16.17;43.59;101507.03;4959215;29;1018;-46
2024/02/21 02:41:41;;;;;;;;;;;;;;;16.23;43.63;101511.16;4959264;29;1077;-45
2024/02/21 02:44:06;;;;;;;;;;;;;;;17.79;40.24;101504.19;4958592;29;1022;-46
2024/02/21 02:46:32;;;;;;;;;;;;;;;16.45;43.03;101504.56;4958823;29;1140;-47
2024/02/21 02:48:57;;;;;;;;;;;;;;;16.02;43.40;101503.50;4949529;29;2801;-47
2024/02/21 02:51:23;;;;;;;;;;;;;;;18.01;40.28;101512.56;4957719;29;1918;-47
2024/02/21 02:53:48;;;;;;;;;;;;;;;16.55;42.98;101510.16;4958850;29;1131;-47
2024/02/21 02:56:17;;;;;;;;;;;;;;;16.05;43.45;101505.13;4958576;29;1085;-46
2024/02/21 02:58:43;;;;;;;;;;;;;;;17.34;41.79;101509.75;4958681;29;1179;-46
2024/02/21 03:01:08;;;;;;;;;;;;;;;16.65;42.72;101513.94;4954152;29;1017;-48
2024/02/21 03:03:34;;;;;;;;;;;;;;;15.98;43.64;101505.47;4950719;29;1057;-48
2024/02/21 03:05:59;;;;;;;;;;;;;;;17.05;42.54;101510.63;4954205;28;1065;-48
2024/02/21 03:08:25;;;;;;;;;;;;;;;16.72;42.54;101503.78;4950432;29;1049;-47
2024/02/21 03:10:50;;;;;;;;;;;;;;;17.13;42.17;101508.38;4958890;29;1898;-46
2024/02/21 03:13:16;;;;;;;;;;;;;;;18.54;38.93;101499.22;4948178;29;1124;-45
2024/02/21 03:15:42;;;;;;;;;;;;;;;16.71;42.59;101513.59;4956016;29;1019;-45
2024/02/21 03:18:07;;;;;;;;;;;;;;;16.97;42.39;101516.44;4953151;28;2380;-45
2024/02/21 03:20:33;;;;;;;;;;;;;;;17.44;41.14;101507.34;4954251;29;1065;-48
2024/02/21 03:22:58;;;;;;;;;;;;;;;16.44;42.86;101511.66;4950260;29;1026;-46
2024/02/21 03:25:24;;;;;;;;;;;;;;;17.56;41.35;101508.38;4951393;29;1165;-47
2024/02/21 03:27:49;;;;;;;;;;;;;;;16.81;42.24;101511.22;4958574;29;1065;-43
2024/02/21 03:30:15;;;;;;;;;;;;;;;16.40;43.17;101513.63;4958598;29;1977;-45
2024/02/21 03:32:40;;;;;;;;;;;;;;;16.08;43.11;101510.25;4958449;29;1005;-44
2024/02/21 03:35:06;;;;;;;;;;;;;;;17.34;41.70;101515.06;4958050;29;1069;-45
2024/02/21 03:37:31;;;;;;;;;;;;;;;17.06;41.82;101512.34;4957744;29;1018;-46
2024/02/21 03:39:57;;;;;;;;;;;;;;;16.17;43.35;101509.69;4958345;29;1052;-45
2024/02/21 03:42:23;;;;;;;;;;;;;;;17.92;40.45;101519.34;4958483;29;1164;-44
2024/02/21 03:44:48;;;;;;;;;;;;;;;16.76;42.24;101515.97;4958154;29;1052;-46
2024/02/21 03:47:14;;;;;;;;;;;;;;;16.24;43.22;101513.72;4957858;29;1077;-45
2024/02/21 03:49:39;;;;;;;;;;;;;;;17.13;42.29;101510.19;4951315;29;1907;-46
2024/02/21 03:52:05;;;;;;;;;;;;;;;17.31;41.10;101507.31;4958180;29;1021;-47
2024/02/21 03:54:30;;;;;;;;;;;;;;;16.33;43.25;101503.50;4945626;29;1210;-45
2024/02/21 03:56:56;;;;;;;;;;;;;;;16.12;43.87;101504.66;4957673;29;1074;-42
2024/02/21 03:59:22;;;;;;;;;;;;;;;17.74;40.37;101491.22;4957927;29;1129;-46
2024/02/21 04:01:51;;;;;;;;;;;;;;;16.37;43.15;101503.22;4957723;29;902;-43
2024/02/21 04:04:16;;;;;;;;;;;;;;;17.73;40.77;101505.44;4958160;29;1173;-45
2024/02/21 04:06:51;;;;;;;;;;;;;;;17.15;41.49;101502.13;4957982;29;1243;-47
2024/02/21 04:09:17;;;;;;;;;;;;;;;16.23;43.21;101496.06;4957797;29;1416;-45
2024/02/21 04:11:42;;;;;;;;;;;;;;;17.66;41.00;101501.50;4957887;29;1964;-47
2024/02/21 04:14:08;;;;;;;;;;;;;;;16.50;42.94;101500.66;4949962;29;1175;-47
2024/02/21 04:16:34;;;;;;;;;;;;;;;16.38;43.68;101504.06;4957423;29;1109;-46
2024/02/21 04:18:59;;;;;;;;;;;;;;;17.65;40.47;101499.78;4957874;29;1041;-44
2024/02/21 04:21:25;;;;;;;;;;;;;;;16.38;43.28;101501.41;4957897;29;1007;-44
2024/02/21 04:23:50;;;;;;;;;;;;;;;16.15;43.92;101493.00;4958131;29;1125;-44
2024/02/21 04:26:16;;;;;;;;;;;;;;;17.63;40.56;101499.03;4948074;29;1205;-48
2024/02/21 04:28:42;;;;;;;;;;;;;;;16.46;43.22;101509.78;4957449;29;1092;-46
2024/02/21 04:31:07;;;;;;;;;;;;;;;17.20;41.84;101510.66;4957994;29;1907;-43
2024/02/21 04:33:33;;;;;;;;;;;;;;;16.76;42.46;101513.31;4958181;29;1073;-45
2024/02/21 04:36:00;;;;;;;;;;;;;;;16.18;43.55;101510.56;4957524;29;1132;-44
2024/02/21 04:38:25;;;;;;;;;;;;;;;17.33;41.65;101508.88;4956793;29;2680;-43
2024/02/21 04:40:51;;;;;;;;;;;;;;;16.62;42.38;101508.81;4947052;29;1954;-45
2024/02/21 04:43:16;;;;;;;;;;;;;;;17.01;42.35;101514.44;4957679;29;1808;-47
2024/02/21 04:45:42;;;;;;;;;;;;;;;18.30;39.09;101509.78;4957281;29;2071;-47
2024/02/21 04:48:08;;;;;;;;;;;;;;;16.62;42.64;101512.34;4957352;29;2251;-41
2024/02/21 04:50:33;;;;;;;;;;;;;;;16.26;43.16;101514.47;4958429;28;2394;-48
2024/02/21 04:52:59;;;;;;;;;;;;;;;16.22;42.81;101512.94;4960889;29;1121;-41
2024/02/21 04:55:24;;;;;;;;;;;;;;;17.93;40.19;101510.41;4961115;29;1077;-47
2024/02/21 04:57:49;;;;;;;;;;;;;;;16.43;42.89;101519.72;4960705;29;1116;-42
2024/02/21 05:00:15;;;;;;;;;;;;;;;16.07;44.15;101505.88;4960955;29;1105;-45
2024/02/21 05:02:41;;;;;;;;;;;;;;;17.68;40.68;101504.94;4959183;29;879;-43
2024/02/21 05:05:06;;;;;;;;;;;;;;;16.45;43.08;101510.69;4944793;29;1417;-43
2024/02/21 05:07:32;;;;;;;;;;;;;;;17.42;41.58;101520.75;4958361;29;1058;-41
2024/02/21 05:09:57;;;;;;;;;;;;;;;17.50;40.88;101518.44;4960996;29;1968;-40
2024/02/21 05:12:23;;;;;;;;;;;;;;;16.49;43.03;101522.88;4960401;29;1291;-38
2024/02/21 05:14:48;;;;;;;;;;;;;;;17.70;40.76;101526.94;4959998;29;994;-42
2024/02/21 05:17:15;;;;;;;;;;;;;;;17.56;40.60;101537.63;4956569;29;883;-44
2024/02/21 05:19:40;;;;;;;;;;;;;;;17.03;41.76;101544.44;4937819;29;1961;-43
2024/02/21 05:22:06;;;;;;;;;;;;;;;16.93;41.63;101545.94;4960432;29;1069;-44
2024/02/21 05:24:31;;;;;;;;;;;;;;;16.60;42.59;101546.09;4960536;29;1069;-43
2024/02/21 05:26:57;;;;;;;;;;;;;;;16.40;42.95;101553.47;4952926;29;857;-43
2024/02/21 05:29:22;;;;;;;;;;;;;;;16.28;43.39;101543.59;4960108;28;1448;-44
2024/02/21 05:31:50;;;;;;;;;;;;;;;16.05;43.71;101539.63;4959809;29;1979;-46
2024/02/21 05:34:16;;;;;;;;;;;;;;;15.93;44.24;101547.34;4954839;28;1323;-41
2024/02/21 05:36:42;;;;;;;;;;;;;;;15.81;44.18;101550.66;4953139;29;1328;-46
2024/02/21 05:39:07;;;;;;;;;;;;;;;15.71;44.61;101545.03;4955811;29;966;-43
2024/02/21 05:41:33;;;;;;;;;;;;;;;15.52;44.84;101554.00;4960079;29;1200;-40
2024/02/21 05:43:58;;;;;;;;;;;;;;;15.46;45.03;101560.53;4960507;29;1116;-44
2024/02/21 05:46:24;;;;;;;;;;;;;;;15.35;45.05;101560.28;4960048;29;1158;-43
2024/02/21 05:48:50;;;;;;;;;;;;;;;15.22;45.65;101568.88;4959114;29;1085;-44
2024/02/21 05:51:15;;;;;;;;;;;;;;;15.16;45.49;101564.75;4956883;29;2290;-40
2024/02/21 05:53:41;;;;;;;;;;;;;;;16.67;42.25;101565.19;4955071;29;1119;-44
2024/02/21 05:56:15;;;;;;;;;;;;;;;17.05;41.17;101574.41;4959141;29;1205;-45
2024/02/21 05:58:41;;;;;;;;;;;;;;;16.02;43.27;101573.34;4959361;29;1268;-38
2024/02/21 06:01:07;;;;;;;;;;;;;;;15.68;43.94;101567.28;4958917;28;1283;-37
2024/02/21 06:03:33;;;;;;;;;;;;;;;15.49;44.73;101575.41;4959180;29;864;-44
2024/02/21 06:05:59;;;;;;;;;;;;;;;15.41;45.05;101579.31;4959299;29;1113;-37
2024/02/21 06:08:24;;;;;;;;;;;;;;;16.91;41.69;101585.91;4959226;29;1085;-36
2024/02/21 06:10:54;;;;;;;;;;;;;;;16.80;41.66;101585.72;4959075;29;1984;-37
2024/02/21 06:13:21;;;;;;;;;;;;;;;16.08;42.96;101584.56;4959338;29;1006;-37
2024/02/21 06:15:46;;;;;;;;;;;;;;;15.69;44.23;101590.22;4955288;29;886;-37
2024/02/21 06:18:12;;;;;;;;;;;;;;;15.49;44.56;101586.88;4942209;29;1114;-36
2024/02/21 06:20:40;;;;;;;;;;;;;;;15.30;45.11;101590.53;4958731;29;2121;-37
2024/02/21 06:23:06;;;;;;;;;;;;;;;16.42;42.63;101598.53;4959234;29;1006;-37
2024/02/21 06:25:31;;;;;;;;;;;;;;;17.15;40.87;101592.50;4958264;29;1069;-37
2024/02/21 06:27:57;;;;;;;;;;;;;;;16.20;42.93;101583.84;4947203;29;1074;-37
2024/02/21 06:30:22;;;;;;;;;;;;;;;15.83;43.87;101581.47;4958367;29;1981;-37
2024/02/21 06:32:48;;;;;;;;;;;;;;;15.53;44.46;101582.25;4939534;29;1313;-37
2024/02/21 06:35:13;;;;;;;;;;;;;;;15.44;44.72;101578.31;4953013;29;1188;-36
2024/02/21 06:37:39;;;;;;;;;;;;;;;16.82;42.17;101581.16;4953667;29;1161;-37
2024/02/21 06:40:05;;;;;;;;;;;;;;;16.94;41.07;101584.88;4952917;29;1123;-37
2024/02/21 06:42:30;;;;;;;;;;;;;;;16.13;42.92;101578.03;4958491;29;1105;-38
2024/02/21 06:44:56;;;;;;;;;;;;;;;15.80;43.99;101573.69;4958250;29;1153;-39
2024/02/21 06:47:21;;;;;;;;;;;;;;;15.58;44.39;101576.69;4958722;29;1161;-39
2024/02/21 06:49:53;;;;;;;;;;;;;;;15.29;44.85;101572.06;4949295;29;2081;-38
2024/02/21 06:52:20;;;;;;;;;;;;;;;16.44;42.54;101569.22;4946977;29;1276;-41
2024/02/21 06:54:47;;;;;;;;;;;;;;;17.24;40.65;101570.66;4956996;29;1189;-38
2024/02/21 06:57:13;;;;;;;;;;;;;;;16.30;42.71;101570.88;4959104;29;1086;-38
2024/02/21 06:59:38;;;;;;;;;;;;;;;15.88;43.38;101568.78;4958115;29;1406;-38
2024/02/21 07:02:04;;;;;;;;;;;;;;;15.61;44.34;101569.44;4955464;29;1232;-39
2024/02/21 07:04:29;;;;;;;;;;;;;;;15.40;44.47;101558.19;4957285;29;999;-41
2024/02/21 07:06:55;;;;;;;;;;;;;;;16.58;42.52;101574.56;4957562;29;1007;-38
2024/02/21 07:09:20;;;;;;;;;;;;;;;17.32;40.38;101573.69;4958083;29;1030;-38
2024/02/21 07:11:46;;;;;;;;;;;;;;;16.37;42.40;101574.03;4958420;29;1907;-37
2024/02/21 07:14:11;;;;;;;;;;;;;;;15.88;43.25;101574.09;4955145;28;1382;-36
2024/02/21 07:16:37;;;;;;;;;;;;;;;15.59;44.35;101576.63;4944244;29;1315;-36
2024/02/21 07:19:02;;;;;;;;;;;;;;;15.48;44.36;101571.88;4957728;29;1045;-36
2024/02/21 07:21:28;;;;;;;;;;;;;;;16.93;41.53;101578.72;4953711;29;1915;-36
2024/02/21 07:23:54;;;;;;;;;;;;;;;16.91;41.32;101575.28;4952528;29;1374;-36
2024/02/21 07:26:19;;;;;;;;;;;;;;;16.39;42.48;101580.13;4956831;29;1094;-35
2024/02/21 07:28:46;;;;;;;;;;;;;;;15.90;43.30;101576.66;4958237;29;1275;-35
2024/02/21 07:31:11;;;;;;;;;;;;;;;15.62;44.30;101581.75;4958036;29;1903;-35
2024/02/21 07:33:37;;;;;;;;;;;;;;;15.42;44.77;101580.19;4953759;29;1192;-36
2024/02/21 07:36:06;;;;;;;;;;;;;;;16.60;42.26;101582.47;4957602;29;1109;-36
2024/02/21 07:38:31;;;;;;;;;;;;;;;17.29;40.25;101578.34;4946729;29;1327;-36
2024/02/21 07:40:57;;;;;;;;;;;;;;;16.34;42.42;101583.06;4950677;29;1031;-36
2024/02/21 07:43:22;;;;;;;;;;;;;;;15.90;43.72;101576.66;4956411;29;1109;-37
2024/02/21 07:45:48;;;;;;;;;;;;;;;15.66;44.08;101585.91;4953466;29;1142;-36
2024/02/21 07:48:13;;;;;;;;;;;;;;;15.47;44.57;101586.09;4957420;29;1051;-35
2024/02/21 07:50:39;;;;;;;;;;;;;;;16.30;43.17;101591.28;4949988;29;2097;-35
2024/02/21 07:53:04;;;;;;;;;;;;;;;17.42;40.30;101595.22;4943389;29;1394;-35
2024/02/21 07:55:30;;;;;;;;;;;;;;;16.48;42.35;101584.03;4958066;29;1044;-35
2024/02/21 07:57:55;;;;;;;;;;;;;;;15.99;43.17;101591.25;4953520;29;1291;-35
2024/02/21 08:00:21;;;;;;;;;;;;;;;15.70;43.80;101589.25;4952174;29;1113;-36
2024/02/21 08:02:47;;;;;;;;;;;;;;;15.50;44.26;101588.56;4950627;29;982;-36
2024/02/21 08:05:13;;;;;;;;;;;;;;;15.39;44.79;101596.25;4951617;29;1046;-36
2024/02/21 08:07:38;;;;;;;;;;;;;;;16.88;41.58;101591.44;4947244;29;1017;-36
2024/02/21 08:10:04;;;;;;;;;;;;;;;16.69;41.79;101599.63;4948991;29;1911;-36
2024/02/21 08:12:30;;;;;;;;;;;;;;;16.06;43.34;101589.97;4956395;29;1327;-36
2024/02/21 08:14:55;;;;;;;;;;;;;;;15.70;44.11;101589.25;4956841;29;1050;-36
2024/02/21 08:17:21;;;;;;;;;;;;;;;15.52;44.57;101594.66;4953532;29;1378;-36
2024/02/21 08:19:47;;;;;;;;;;;;;;;15.38;44.73;101592.75;4956606;29;2075;-36
2024/02/21 08:22:13;;;;;;;;;;;;;;;15.98;43.83;101587.72;4957420;29;1435;-36
2024/02/21 08:24:39;;;;;;;;;;;;;;;17.23;40.90;101591.06;4956897;28;1383;-36
2024/02/21 08:27:04;;;;;;;;;;;;;;;16.53;42.25;101587.28;4954585;29;1113;-36
2024/02/21 08:29:29;;;;;;;;;;;;;;;16.04;43.36;101581.22;4956251;29;1007;-36
2024/02/21 08:31:55;;;;;;;;;;;;;;;15.77;43.98;101576.50;4958512;29;1910;-37
2024/02/21 08:34:20;;;;;;;;;;;;;;;15.57;44.19;101575.84;4952043;29;1275;-36
2024/02/21 08:36:46;;;;;;;;;;;;;;;16.31;43.00;101588.56;4956480;29;1287;-36
2024/02/21 08:39:15;;;;;;;;;;;;;;;17.38;40.29;101583.09;4955028;29;1153;-36
2024/02/21 08:41:40;;;;;;;;;;;;;;;16.60;42.39;101588.59;4958857;29;1366;-38
2024/02/21 08:44:07;;;;;;;;;;;;;;;16.68;41.79;101588.19;4961358;29;991;-37
2024/02/21 08:46:32;;;;;;;;;;;;;;;16.74;41.91;101582.47;4960485;29;1033;-38
2024/02/21 08:48:58;;;;;;;;;;;;;;;15.82;43.68;101581.56;4957271;29;1165;-35
2024/02/21 08:51:23;;;;;;;;;;;;;;;15.58;44.95;101579.34;4956459;29;2062;-35
2024/02/21 08:53:49;;;;;;;;;;;;;;;17.09;41.56;101583.09;4960583;29;1182;-36
2024/02/21 08:56:15;;;;;;;;;;;;;;;16.84;41.77;101577.47;4960445;29;1047;-35
2024/02/21 08:58:41;;;;;;;;;;;;;;;16.10;43.16;101574.72;4957126;29;1114;-34
2024/02/21 09:01:09;;;;;;;;;;;;;;;15.78;43.92;101572.94;4959390;29;955;-35
2024/02/21 09:03:38;;;;;;;;;;;;;;;15.58;44.52;101576.69;4956997;29;1063;-35
2024/02/21 09:06:04;;;;;;;;;;;;;;;15.42;44.76;101570.44;4960543;29;1409;-36
2024/02/21 09:08:30;;;;;;;;;;;;;;;15.89;44.18;101569.66;4959192;29;1308;-35
2024/02/21 09:10:55;;;;;;;;;;;;;;;17.24;41.02;101574.19;4959794;29;1908;-35
2024/02/21 09:13:21;;;;;;;;;;;;;;;16.59;42.02;101572.75;4960736;29;1037;-35
2024/02/21 09:15:47;;;;;;;;;;;;;;;16.00;43.60;101567.28;4958191;29;1031;-34
2024/02/21 09:18:12;;;;;;;;;;;;;;;15.62;44.33;101573.78;4956283;29;1497;-36
2024/02/21 09:20:38;;;;;;;;;;;;;;;15.52;44.56;101562.84;4958751;29;2133;-34
2024/02/21 09:23:03;;;;;;;;;;;;;;;16.35;43.10;101575.94;4953370;29;1517;-34
2024/02/21 09:25:29;;;;;;;;;;;;;;;17.38;40.46;101572.47;4956359;29;1165;-35
2024/02/21 09:27:55;;;;;;;;;;;;;;;16.35;42.73;101578.59;4951148;29;1002;-35
2024/02/21 09:30:20;;;;;;;;;;;;;;;15.90;43.89;101574.00;4952955;29;2033;-35
2024/02/21 09:32:46;;;;;;;;;;;;;;;15.69;44.04;101571.66;4956177;29;1509;-35
2024/02/21 09:35:12;;;;;;;;;;;;;;;15.44;45.00;101573.00;4951904;29;1023;-35
2024/02/21 09:37:38;;;;;;;;;;;;;;;15.35;45.34;101569.06;4952762;29;1050;-35
2024/02/21 09:40:04;;;;;;;;;;;;;;;16.84;42.00;101571.28;4957280;29;1098;-35
2024/02/21 09:42:35;;;;;;;;;;;;;;;17.22;40.76;101557.47;4960401;29;1066;-36
2024/02/21 09:45:01;;;;;;;;;;;;;;;16.14;42.92;101562.97;4958939;29;1220;-35
2024/02/21 09:47:34;;;;;;;;;;;;;;;15.86;44.05;101561.88;4943102;29;1006;-35
2024/02/21 09:50:00;;;;;;;;;;;;;;;15.60;44.23;101564.22;4942680;29;1985;-36
2024/02/21 09:52:25;;;;;;;;;;;;;;;15.39;45.00;101551.19;4951864;29;1122;-35
2024/02/21 09:54:52;;;;;;;;;;;;;;;15.52;44.55;101551.38;4942087;29;1315;-35
2024/02/21 09:57:18;;;;;;;;;;;;;;;16.98;41.53;101552.69;4941639;29;984;-34
2024/02/21 09:59:43;;;;;;;;;;;;;;;16.65;41.85;101548.47;4958431;29;1200;-35
2024/02/21 10:02:11;;;;;;;;;;;;;;;15.99;43.41;101548.78;4959581;29;1066;-35
2024/02/21 10:04:36;;;;;;;;;;;;;;;15.70;44.28;101546.00;4953327;29;1271;-34
2024/02/21 10:07:02;;;;;;;;;;;;;;;15.44;44.78;101538.53;4959599;29;1167;-35
2024/02/21 10:09:28;;;;;;;;;;;;;;;15.38;45.19;101542.38;4958691;29;1275;-35
2024/02/21 10:11:54;;;;;;;;;;;;;;;16.84;41.81;101536.75;4957983;28;1981;-35
2024/02/21 10:14:19;;;;;;;;;;;;;;;16.90;41.55;101539.00;4958888;29;1233;-35
2024/02/21 10:16:47;;;;;;;;;;;;;;;16.07;43.42;101535.06;4947829;29;1091;-34
2024/02/21 10:19:18;;;;;;;;;;;;;;;15.76;44.02;101527.06;4956603;29;1284;-34
2024/02/21 10:21:44;;;;;;;;;;;;;;;15.52;44.53;101519.53;4959020;29;2323;-35
2024/02/21 10:24:12;;;;;;;;;;;;;;;15.33;44.89;101517.06;4959081;29;1150;-35
2024/02/21 10:26:37;;;;;;;;;;;;;;;16.54;42.70;101514.63;4959259;29;1010;-35
2024/02/21 10:29:03;;;;;;;;;;;;;;;17.47;40.46;101501.84;4956532;29;1117;-35
2024/02/21 10:31:28;;;;;;;;;;;;;;;16.47;42.47;101500.84;4958165;29;1907;-35
2024/02/21 10:33:57;;;;;;;;;;;;;;;16.00;43.28;101495.63;4955130;29;1568;-34
2024/02/21 10:36:24;;;;;;;;;;;;;;;15.67;44.04;101491.28;4958495;29;1311;-34
2024/02/21 10:38:49;;;;;;;;;;;;;;;15.50;44.38;101486.94;4958399;29;1201;-35
2024/02/21 10:41:17;;;;;;;;;;;;;;;15.33;44.95;101482.59;4956070;29;1240;-35
2024/02/21 10:43:46;;;;;;;;;;;;;;;16.64;42.29;101486.56;4958444;29;1300;-35
2024/02/21 10:46:12;;;;;;;;;;;;;;;17.21;40.88;101473.34;4957317;29;1050;-35
2024/02/21 10:48:47;;;;;;;;;;;;;;;16.29;43.00;101476.25;4940754;29;1303;-35
2024/02/21 10:51:12;;;;;;;;;;;;;;;15.79;44.12;101473.81;4957030;29;2785;-34
2024/02/21 10:53:38;;;;;;;;;;;;;;;15.59;44.52;101478.47;4949212;29;1262;-34
2024/02/21 10:56:12;;;;;;;;;;;;;;;15.41;44.71;101469.78;4957128;29;906;-34
2024/02/21 10:58:38;;;;;;;;;;;;;;;16.12;43.68;101475.47;4947168;29;1129;-35
2024/02/21 11:01:03;;;;;;;;;;;;;;;17.33;40.69;101468.16;4929199;29;1077;-35
2024/02/21 11:03:29;;;;;;;;;;;;;;;16.48;42.53;101477.81;4954148;29;1176;-35
2024/02/21 11:05:54;;;;;;;;;;;;;;;15.96;43.48;101469.34;4957179;29;1098;-35
2024/02/21 11:08:20;;;;;;;;;;;;;;;15.66;44.37;101461.25;4958464;29;1312;-35
2024/02/21 11:10:46;;;;;;;;;;;;;;;15.51;44.59;101468.31;4957122;29;1973;-35
2024/02/21 11:13:11;;;;;;;;;;;;;;;15.29;45.42;101468.66;4957387;29;1053;-34
2024/02/21 11:15:37;;;;;;;;;;;;;;;16.51;42.54;101469.66;4956604;29;1025;-34
2024/02/21 11:18:02;;;;;;;;;;;;;;;17.23;40.90;101460.78;4957547;29;1069;-34
2024/02/21 11:20:34;;;;;;;;;;;;;;;16.26;42.73;101463.19;4940499;29;2177;-34
2024/02/21 11:23:00;;;;;;;;;;;;;;;15.82;43.95;101455.06;4958123;29;1026;-35
2024/02/21 11:25:26;;;;;;;;;;;;;;;15.57;44.57;101463.59;4957712;29;1106;-35
2024/02/21 11:27:59;;;;;;;;;;;;;;;15.43;44.52;101466.09;4957889;29;1057;-34
2024/02/21 11:30:28;;;;;;;;;;;;;;;16.28;43.19;101472.75;4950870;29;1969;-34
2024/02/21 11:33:00;;;;;;;;;;;;;;;17.39;40.67;101467.75;4930937;29;1220;-34
2024/02/21 11:35:25;;;;;;;;;;;;;;;16.36;42.89;101468.78;4956257;29;1364;-36
2024/02/21 11:37:51;;;;;;;;;;;;;;;15.89;43.72;101467.03;4937162;29;1389;-35
2024/02/21 11:40:16;;;;;;;;;;;;;;;15.63;43.91;101465.91;4956185;29;1226;-34
2024/02/21 11:42:42;;;;;;;;;;;;;;;15.48;44.53;101467.63;4936090;29;1324;-34
2024/02/21 11:45:11;;;;;;;;;;;;;;;15.36;45.13;101461.22;4951163;29;1088;-34
2024/02/21 11:47:38;;;;;;;;;;;;;;;16.85;41.97;101453.44;4954906;29;1320;-34
2024/02/21 11:50:04;;;;;;;;;;;;;;;17.20;40.90;101458.31;4956552;29;2832;-34
2024/02/21 11:52:30;;;;;;;;;;;;;;;16.30;42.98;101456.72;4953558;29;994;-35
2024/02/21 11:54:57;;;;;;;;;;;;;;;15.84;43.96;101454.97;4957587;29;1181;-35
2024/02/21 11:57:23;;;;;;;;;;;;;;;15.53;44.82;101454.97;4957718;29;1050;-34
2024/02/21 11:59:49;;;;;;;;;;;;;;;15.48;44.72;101455.22;4959545;28;1077;-34
2024/02/21 12:02:15;;;;;;;;;;;;;;;15.65;44.40;101450.75;4961885;29;1118;-35
2024/02/21 12:04:41;;;;;;;;;;;;;;;17.07;41.38;101446.72;4960643;29;1113;-35
2024/02/21 12:07:07;;;;;;;;;;;;;;;16.73;41.77;101444.41;4961816;28;1101;-36
2024/02/21 12:09:33;;;;;;;;;;;;;;;16.09;43.22;101450.91;4943100;29;1165;-34
2024/02/21 12:12:05;;;;;;;;;;;;;;;15.73;44.13;101437.06;4954175;29;1911;-34
2024/02/21 12:14:31;;;;;;;;;;;;;;;15.43;44.65;101436.09;4959048;29;1081;-34
2024/02/21 12:16:57;;;;;;;;;;;;;;;15.33;45.11;101433.06;4939724;29;1265;-34
2024/02/21 12:19:23;;;;;;;;;;;;;;;16.85;41.94;101435.66;4961480;29;1002;-34
2024/02/21 12:21:52;;;;;;;;;;;;;;;16.91;41.51;101430.91;4957751;29;2489;-35
2024/02/21 12:24:24;;;;;;;;;;;;;;;16.06;43.11;101427.22;4959440;29;1165;-34
2024/02/21 12:26:50;;;;;;;;;;;;;;;15.74;43.89;101422.84;4958741;29;1054;-35
2024/02/21 12:29:15;;;;;;;;;;;;;;;15.51;44.92;101419.72;4955095;29;1430;-34
2024/02/21 12:31:41;;;;;;;;;;;;;;;15.32;45.39;101420.78;4960874;29;1910;-34
2024/02/21 12:34:06;;;;;;;;;;;;;;;16.76;42.19;101417.66;4960211;29;1257;-34
2024/02/21 12:36:32;;;;;;;;;;;;;;;17.34;40.66;101411.34;4955546;29;1382;-35
2024/02/21 12:38:58;;;;;;;;;;;;;;;16.26;42.99;101412.72;4945714;29;1504;-34
2024/02/21 12:41:25;;;;;;;;;;;;;;;15.86;44.02;101414.16;4953215;29;1066;-35